Pagrindinis puslapis
METAR-TAF:

METAR-TAF

Oro uostai :

Samujis, Tailandas

platuma: 09-32-52N, ilguma: 100-03-44E, Aukštis: 20 m

Dabartinis oras

Ataskaita buvo paskelbta 4 valandos ir 51 minutes, ne 15:00 UTC
Ramus vėjas
Temperatūra 29°C
Drėgmė 84%
Slėgis 1010 hPa
Matomumas 10 km arba daugiau
Mažai debesys ne aukštis 2000 ft

METAR: VTSM 221500Z 00000KT 9999 FEW020 29/26 Q1010 NOSIG

Laikas: 02:51 (19:51 UTC)

Prognozė

Ataskaita buvo paskelbta 2 valandos ir 51 minutes, ne 17:00 UTC
Prognozė galioja nuo 22 metu 18 UTC su 23 metu 18 UTC
Vėjas 5 kt iš Šiaurės Vakarų
Matomumas 10 km arba daugiau
Mažai debesys ne aukštis 2000 ft

TAF: VTSM 221700Z 2218/2318 32005KT 9999 FEW020

Orai ataskaitas ir orų prognozės (METAR, TAF).

turimą stotys yra geltonos ir raudonos taškus žemėlapyje.

Perkelti pele per norėdami pamatyti stoties vardą.

Tada spustelėkite, norėdami matyti oro stebėjimo ir prognozės.

Norėdami pakeisti žemėlapį: spustelėkite ant žalios mygtukų su juodo kryžiaus žemyn,; žalią mygtuką su brūkšneliu, jei norite nutolinti; arba žalių rodyklių gretimoms žemėlapius.


METAR-TAF: